Bookmark and Share
Track history (hours):
 

Callsign BAREU56 (name unknown)

Last reported at 2012-Aug-03 17:00 UTC. Time now 2014-Apr-21 07:29 UTC.
Position N 39°18' E 015°00'.
Warning: this ship's position is years out of date!

Barometer 1014.2 mb

NotesDate/timePositionNaut miles runAvg speedWind from/ knotsBaromVisibWave heightAir tempDewpointWater temp
2012-Aug-03 17:00N 39°18' E 015°00'1515.2 1014.2
2012-Aug-03 16:00N 39°06' E 015°12'1312.9 1014.5
2012-Aug-03 15:00N 38°54' E 015°18'8 7.6 1014.7
2012-Aug-03 14:00N 38°48' E 015°24'1312.9 1015.0
2012-Aug-03 13:00N 38°36' E 015°30'1312.9 1015.4
2012-Aug-03 12:00N 38°24' E 015°36'8 7.6 1015.6
2012-Aug-03 11:00N 38°18' E 015°42'1312.9 1015.8
2012-Aug-03 10:00N 38°06' E 015°36'1212.0 1015.2
2012-Aug-03 09:00N 37°54' E 015°36'1111.2 1015.2
2012-Aug-03 08:00N 37°48' E 015°48'1312.9 1015.2
2012-Aug-03 07:00N 37°36' E 015°54'1312.9 1014.5
2012-Aug-03 06:00N 37°24' E 016°00'8 7.7 1014.6
2012-Aug-03 05:00N 37°18' E 016°06'1515.3 1014.5
2012-Aug-03 04:00N 37°06' E 016°18'8 7.7 1014.2
2012-Aug-03 03:00N 37°00' E 016°24'1312.9 1014.3
2012-Aug-03 02:00N 36°48' E 016°30'1312.9 1014.4
2012-Aug-03 01:00N 36°36' E 016°36'1515.4 1014.6
2012-Aug-03 00:00N 36°24' E 016°48'8 7.7 1015.0
2012-Aug-02 23:00N 36°18' E 016°54'1312.9 1015.4
2012-Aug-02 22:00N 36°06' E 017°00'1515.4 1015.6
2012-Aug-02 21:00N 35°54' E 017°12'8 7.7 1015.5
2012-Aug-02 20:00N 35°48' E 017°18'2613.0 1015.3
2012-Aug-02 18:00N 35°24' E 017°30'1313.0 1014.0
2012-Aug-02 17:00N 35°12' E 017°36'1211.5 1013.9
2012-Aug-02 16:00N 35°06' E 017°48'1313.0 1013.7
2012-Aug-02 15:00N 34°54' E 017°54'1313.0 1013.6
2012-Aug-02 14:00N 34°42' E 018°00'1211.6 1013.7
2012-Aug-02 13:00N 34°36' E 018°12'1313.0 1013.8
2012-Aug-02 12:00N 34°24' E 018°18'1313.0 1013.8
2012-Aug-02 11:00N 34°12' E 018°24'8 7.8 1014.0
2012-Aug-02 10:00N 34°06' E 018°30'1615.6 1014.2
2012-Aug-02 09:00N 33°54' E 018°42'1313.0 1014.3
2012-Aug-02 08:00N 33°42' E 018°48'8 7.8 1014.0
2012-Aug-02 07:00N 33°36' E 018°54'1313.0 1013.6
2012-Aug-02 06:00N 33°24' E 019°00'8 7.8 1013.1
2012-Aug-02 05:00N 33°18' E 019°06'1313.0 1012.4
2012-Aug-02 04:00N 33°06' E 019°12'1615.7 1012.0
2012-Aug-02 03:00N 32°54' E 019°24'8 7.8 1011.6
2012-Aug-02 02:00N 32°48' E 019°30'1313.0 1011.4
2012-Aug-02 01:00N 32°36' E 019°36'1313.0 1011.2
2012-Aug-02 00:00N 32°24' E 019°42'1313.0 1011.3
2012-Aug-01 23:00N 32°12' E 019°48'1211.8 1011.8
2012-Aug-01 22:00N 32°06' E 020°00'0 0.0 1012.1
2012-Aug-01 19:00N 32°06' E 020°00'0 0.0 1011.4
2012-Aug-01 16:00N 32°06' E 020°00'0 0.0 1010.2
2012-Aug-01 14:00N 32°06' E 020°00'0 0.0 1010.6
2012-Aug-01 04:00N 32°06' E 020°00'0 0.0 1009.4
2012-Aug-01 01:00N 32°06' E 020°00'0 0.0 1009.1
2012-Jul-31 08:00N 32°06' E 020°00'0 0.0 1010.1
2012-Jul-30 14:00N 32°06' E 020°00'0 0.0 1010.4
2012-Jul-30 01:00N 32°06' E 020°00'0 0.0 1011.8
2012-Jul-29 12:00N 32°06' E 020°00'0 0.0 1011.3
2012-Jul-29 11:00N 32°06' E 020°00'0 0.0 1011.5
2012-Jul-28 21:00N 32°06' E 020°00'0 0.0 1011.3
2012-Jul-27 22:00N 32°06' E 020°00'0 0.0 1011.5
2012-Jul-27 21:00N 32°06' E 020°00'0 0.0 1011.6
2012-Jul-27 14:00N 32°06' E 020°00'0 0.0 1011.4
2012-Jul-27 13:00N 32°06' E 020°00'1010.2 1012.0
2012-Jul-27 12:00N 32°06' E 019°48'1010.2 1012.6
2012-Jul-27 11:00N 32°06' E 019°36'1515.2 1013.2
2012-Jul-27 10:00N 32°06' E 019°18'1211.8 1013.8
2012-Jul-27 09:00N 32°12' E 019°06'1010.2 1014.1
2012-Jul-27 08:00N 32°12' E 018°54'1515.2 1014.1
2012-Jul-27 07:00N 32°12' E 018°36'1010.2 1014.0
2012-Jul-27 06:00N 32°12' E 018°24'1010.2 1013.8
2012-Jul-27 05:00N 32°12' E 018°12'1616.4 1013.6
2012-Jul-27 04:00N 32°18' E 017°54'1010.1 1013.3
2012-Jul-27 03:00N 32°18' E 017°42'1515.2 1013.2
2012-Jul-27 02:00N 32°18' E 017°24'1010.1 1013.3
2012-Jul-27 01:00N 32°18' E 017°12'1010.1 1013.8
2012-Jul-27 00:00N 32°18' E 017°00'1515.2 1014.2
2012-Jul-26 23:00N 32°18' E 016°42'1010.1 1014.8
2012-Jul-26 22:00N 32°18' E 016°30'1211.8 1015.1
2012-Jul-26 21:00N 32°24' E 016°18'1010.1 1015.4
2012-Jul-26 20:00N 32°24' E 016°06'1010.1 1015.6
2012-Jul-26 19:00N 32°24' E 015°54'1515.2 1015.4
2012-Jul-26 18:00N 32°24' E 015°36'1010.1 1015.2
2012-Jul-26 17:00N 32°24' E 015°24'1010.1 1015.2
2012-Jul-26 16:00N 32°24' E 015°12'0 0.0 1015.5
2012-Jul-26 04:00N 32°24' E 015°12'0 0.0 1016.3
2012-Jul-25 08:00N 32°24' E 015°12'   1016.0

Dump ship's entire track history

sailing weather and tide predictions

Ship Status Report: callsign BAREU56